logo
Search for airport 
image banner adimage banner adimage banner ad
image banner ad

FAMUNS - Munster

Located in , South Africa

ICAO - , IATA -

Data provided by Airmate  

General information

Coordinates: S31°0'22" E30°14'56"
Elevation is 150 feet MSL.
 
View others Airports in Eastern Cape

Operational data

Special qualification required
Current time UTC:
Current local time:
Weather at : - ( 0 km )
METAR: FMMI 181038Z 16011KT 130V190 9999 SCT020 SCT024 24/14 Q1023 NOSIG
View NOTAMs / SUP AIP / TFR affecting this airport [VIEW]
Communications frequencies: [VIEW]

Runways:

RWY identifierQFULength (ft)Width (ft)SurfaceLDA (ft)
0420°164066GRASS
22200°164066GRASS

Airport contact information

Address: South Africa

Satellite view of FAMUNS